sensor_id;sensor_type;location;lat;lon;timestamp;temperature;humidity
19868;DHT22;10096;51.112;6.776;2022-11-03T00:01:13;10.80;1.00
19868;DHT22;10096;51.112;6.776;2022-11-03T00:03:40;10.80;1.00
19868;DHT22;10096;51.112;6.776;2022-11-03T00:06:12;10.90;1.00
19868;DHT22;10096;51.112;6.776;2022-11-03T00:08:41;11.10;1.00
19868;DHT22;10096;51.112;6.776;2022-11-03T00:11:10;11.00;1.00
19868;DHT22;10096;51.112;6.776;2022-11-03T00:13:39;11.20;1.00
19868;DHT22;10096;51.112;6.776;2022-11-03T00:16:07;11.10;1.00
19868;DHT22;10096;51.112;6.776;2022-11-03T00:18:39;10.90;1.00
19868;DHT22;10096;51.112;6.776;2022-11-03T00:21:08;11.00;1.00
19868;DHT22;10096;51.112;6.776;2022-11-03T00:23:41;11.10;1.00
19868;DHT22;10096;51.112;6.776;2022-11-03T00:26:10;11.00;1.00
19868;DHT22;10096;51.112;6.776;2022-11-03T00:28:38;10.90;1.00
19868;DHT22;10096;51.112;6.776;2022-11-03T00:31:10;11.10;1.00
19868;DHT22;10096;51.112;6.776;2022-11-03T00:33:39;11.00;1.00
19868;DHT22;10096;51.112;6.776;2022-11-03T00:36:12;11.10;1.00
19868;DHT22;10096;51.112;6.776;2022-11-03T00:38:54;11.30;1.00
19868;DHT22;10096;51.112;6.776;2022-11-03T00:41:26;11.10;1.00
19868;DHT22;10096;51.112;6.776;2022-11-03T00:44:02;11.20;1.00
19868;DHT22;10096;51.112;6.776;2022-11-03T00:46:49;10.90;1.00
19868;DHT22;10096;51.112;6.776;2022-11-03T00:49:16;11.20;1.00
19868;DHT22;10096;51.112;6.776;2022-11-03T00:51:43;11.40;1.00
19868;DHT22;10096;51.112;6.776;2022-11-03T00:54:17;11.40;1.00
19868;DHT22;10096;51.112;6.776;2022-11-03T00:56:44;11.20;1.00
19868;DHT22;10096;51.112;6.776;2022-11-03T00:59:11;11.20;1.00
19868;DHT22;10096;51.112;6.776;2022-11-03T01:01:44;11.40;1.00
19868;DHT22;10096;51.112;6.776;2022-11-03T01:04:12;11.20;1.00
19868;DHT22;10096;51.112;6.776;2022-11-03T01:07:00;11.20;1.00
19868;DHT22;10096;51.112;6.776;2022-11-03T01:09:41;11.40;1.00
19868;DHT22;10096;51.112;6.776;2022-11-03T01:12:10;11.30;1.00
19868;DHT22;10096;51.112;6.776;2022-11-03T01:14:48;11.50;1.00
19868;DHT22;10096;51.112;6.776;2022-11-03T01:17:31;11.20;1.00
19868;DHT22;10096;51.112;6.776;2022-11-03T01:20:02;11.40;1.00
19868;DHT22;10096;51.112;6.776;2022-11-03T01:22:30;11.30;1.00
19868;DHT22;10096;51.112;6.776;2022-11-03T01:24:59;11.40;1.00
19868;DHT22;10096;51.112;6.776;2022-11-03T01:27:25;11.40;1.00
19868;DHT22;10096;51.112;6.776;2022-11-03T01:29:52;11.40;1.00
19868;DHT22;10096;51.112;6.776;2022-11-03T01:32:32;11.30;1.00
19868;DHT22;10096;51.112;6.776;2022-11-03T01:34:59;11.20;1.00
19868;DHT22;10096;51.112;6.776;2022-11-03T01:37:26;11.10;1.00
19868;DHT22;10096;51.112;6.776;2022-11-03T01:39:58;11.10;1.00
19868;DHT22;10096;51.112;6.776;2022-11-03T01:42:28;10.80;1.00
19868;DHT22;10096;51.112;6.776;2022-11-03T01:45:07;11.00;1.00
19868;DHT22;10096;51.112;6.776;2022-11-03T01:47:42;11.10;1.00
19868;DHT22;10096;51.112;6.776;2022-11-03T01:50:20;11.00;1.00
19868;DHT22;10096;51.112;6.776;2022-11-03T01:52:53;11.00;1.00
19868;DHT22;10096;51.112;6.776;2022-11-03T01:55:32;11.00;1.00
19868;DHT22;10096;51.112;6.776;2022-11-03T01:58:16;11.00;1.00
19868;DHT22;10096;51.112;6.776;2022-11-03T02:00:52;10.70;1.00
19868;DHT22;10096;51.112;6.776;2022-11-03T02:03:26;10.90;1.00
19868;DHT22;10096;51.112;6.776;2022-11-03T02:05:55;10.90;11.90
19868;DHT22;10096;51.112;6.776;2022-11-03T02:08:30;10.80;19.10
19868;DHT22;10096;51.112;6.776;2022-11-03T02:11:16;10.80;21.10
19868;DHT22;10096;51.112;6.776;2022-11-03T02:14:01;10.90;23.70
19868;DHT22;10096;51.112;6.776;2022-11-03T02:16:31;10.90;26.30
19868;DHT22;10096;51.112;6.776;2022-11-03T02:19:03;10.70;24.30
19868;DHT22;10096;51.112;6.776;2022-11-03T02:21:39;11.10;26.40
19868;DHT22;10096;51.112;6.776;2022-11-03T02:24:26;10.90;23.30
19868;DHT22;10096;51.112;6.776;2022-11-03T02:27:01;11.10;42.50
19868;DHT22;10096;51.112;6.776;2022-11-03T02:29:28;11.10;43.50
19868;DHT22;10096;51.112;6.776;2022-11-03T02:32:04;10.90;48.10
19868;DHT22;10096;51.112;6.776;2022-11-03T02:34:39;11.20;58.90
19868;DHT22;10096;51.112;6.776;2022-11-03T02:37:12;11.00;83.80
19868;DHT22;10096;51.112;6.776;2022-11-03T02:39:50;10.70;93.90
19868;DHT22;10096;51.112;6.776;2022-11-03T02:42:29;11.00;92.20
19868;DHT22;10096;51.112;6.776;2022-11-03T02:44:59;10.70;76.40
19868;DHT22;10096;51.112;6.776;2022-11-03T02:47:29;11.10;99.90
19868;DHT22;10096;51.112;6.776;2022-11-03T02:50:07;11.10;86.50
19868;DHT22;10096;51.112;6.776;2022-11-03T02:52:38;11.10;97.80
19868;DHT22;10096;51.112;6.776;2022-11-03T02:55:17;11.00;96.70
19868;DHT22;10096;51.112;6.776;2022-11-03T02:57:53;11.20;93.30
19868;DHT22;10096;51.112;6.776;2022-11-03T03:00:23;11.40;86.30
19868;DHT22;10096;51.112;6.776;2022-11-03T03:05:46;10.90;99.90
19868;DHT22;10096;51.112;6.776;2022-11-03T03:08:23;11.30;99.90
19868;DHT22;10096;51.112;6.776;2022-11-03T03:11:13;11.20;99.90
19868;DHT22;10096;51.112;6.776;2022-11-03T03:14:27;11.20;99.90
19868;DHT22;10096;51.112;6.776;2022-11-03T03:17:14;11.20;99.90
19868;DHT22;10096;51.112;6.776;2022-11-03T03:19:52;11.30;99.90
19868;DHT22;10096;51.112;6.776;2022-11-03T03:22:43;11.30;99.90
19868;DHT22;10096;51.112;6.776;2022-11-03T03:25:32;11.20;97.90
19868;DHT22;10096;51.112;6.776;2022-11-03T03:28:14;11.30;99.90
19868;DHT22;10096;51.112;6.776;2022-11-03T03:31:21;11.50;96.60
19868;DHT22;10096;51.112;6.776;2022-11-03T03:33:52;11.30;91.20
19868;DHT22;10096;51.112;6.776;2022-11-03T03:36:21;11.40;92.90
19868;DHT22;10096;51.112;6.776;2022-11-03T03:38:55;11.50;99.20
19868;DHT22;10096;51.112;6.776;2022-11-03T03:41:23;11.50;99.90
19868;DHT22;10096;51.112;6.776;2022-11-03T03:43:56;11.20;99.90
19868;DHT22;10096;51.112;6.776;2022-11-03T03:46:30;11.30;99.90
19868;DHT22;10096;51.112;6.776;2022-11-03T03:49:00;11.40;99.90
19868;DHT22;10096;51.112;6.776;2022-11-03T03:51:29;11.00;99.90
19868;DHT22;10096;51.112;6.776;2022-11-03T03:53:57;11.40;99.90
19868;DHT22;10096;51.112;6.776;2022-11-03T03:56:27;11.20;99.90
19868;DHT22;10096;51.112;6.776;2022-11-03T03:58:55;11.20;99.90
19868;DHT22;10096;51.112;6.776;2022-11-03T04:01:22;11.30;99.90
19868;DHT22;10096;51.112;6.776;2022-11-03T04:03:53;11.40;99.90
19868;DHT22;10096;51.112;6.776;2022-11-03T04:06:28;11.40;99.90
19868;DHT22;10096;51.112;6.776;2022-11-03T04:08:55;11.20;99.90
19868;DHT22;10096;51.112;6.776;2022-11-03T04:11:22;11.10;99.90
19868;DHT22;10096;51.112;6.776;2022-11-03T04:14:09;11.20;99.90
19868;DHT22;10096;51.112;6.776;2022-11-03T04:16:53;11.20;99.90
19868;DHT22;10096;51.112;6.776;2022-11-03T04:19:39;11.10;99.90
19868;DHT22;10096;51.112;6.776;2022-11-03T04:22:26;11.10;99.90
19868;DHT22;10096;51.112;6.776;2022-11-03T04:24:56;11.10;99.90
19868;DHT22;10096;51.112;6.776;2022-11-03T04:27:30;11.10;99.90
19868;DHT22;10096;51.112;6.776;2022-11-03T04:30:01;11.10;99.90
19868;DHT22;10096;51.112;6.776;2022-11-03T04:32:28;11.00;99.90
19868;DHT22;10096;51.112;6.776;2022-11-03T04:34:58;11.10;99.90
19868;DHT22;10096;51.112;6.776;2022-11-03T04:37:39;11.10;99.90
19868;DHT22;10096;51.112;6.776;2022-11-03T04:40:13;11.20;99.90
19868;DHT22;10096;51.112;6.776;2022-11-03T04:42:44;11.20;99.90
19868;DHT22;10096;51.112;6.776;2022-11-03T04:45:20;10.90;99.90
19868;DHT22;10096;51.112;6.776;2022-11-03T04:47:54;11.10;99.90
19868;DHT22;10096;51.112;6.776;2022-11-03T04:50:24;11.10;99.90
19868;DHT22;10096;51.112;6.776;2022-11-03T04:52:54;11.30;99.90
19868;DHT22;10096;51.112;6.776;2022-11-03T04:55:21;11.20;99.90
19868;DHT22;10096;51.112;6.776;2022-11-03T04:57:53;11.20;99.90
19868;DHT22;10096;51.112;6.776;2022-11-03T05:00:20;11.20;99.90
19868;DHT22;10096;51.112;6.776;2022-11-03T05:02:50;11.30;99.90
19868;DHT22;10096;51.112;6.776;2022-11-03T05:05:21;11.30;99.90
19868;DHT22;10096;51.112;6.776;2022-11-03T05:07:56;11.50;99.90
19868;DHT22;10096;51.112;6.776;2022-11-03T05:10:26;11.40;99.90
19868;DHT22;10096;51.112;6.776;2022-11-03T05:12:55;11.30;99.90
19868;DHT22;10096;51.112;6.776;2022-11-03T05:15:31;11.60;99.90
19868;DHT22;10096;51.112;6.776;2022-11-03T05:18:15;11.40;99.90
19868;DHT22;10096;51.112;6.776;2022-11-03T05:20:47;11.50;99.90
19868;DHT22;10096;51.112;6.776;2022-11-03T05:23:31;11.40;99.90
19868;DHT22;10096;51.112;6.776;2022-11-03T05:26:02;11.40;99.90
19868;DHT22;10096;51.112;6.776;2022-11-03T05:28:33;11.40;99.90
19868;DHT22;10096;51.112;6.776;2022-11-03T05:31:08;11.40;99.90
19868;DHT22;10096;51.112;6.776;2022-11-03T05:33:41;11.60;99.90
19868;DHT22;10096;51.112;6.776;2022-11-03T05:36:13;11.50;99.90
19868;DHT22;10096;51.112;6.776;2022-11-03T05:38:57;11.50;99.90
19868;DHT22;10096;51.112;6.776;2022-11-03T05:41:26;11.40;99.90
19868;DHT22;10096;51.112;6.776;2022-11-03T05:43:56;11.40;99.90
19868;DHT22;10096;51.112;6.776;2022-11-03T05:46:27;11.50;99.90
19868;DHT22;10096;51.112;6.776;2022-11-03T05:48:56;11.40;99.90
19868;DHT22;10096;51.112;6.776;2022-11-03T05:51:33;11.50;99.90
19868;DHT22;10096;51.112;6.776;2022-11-03T05:54:03;11.50;99.90
19868;DHT22;10096;51.112;6.776;2022-11-03T05:56:32;11.50;99.90
19868;DHT22;10096;51.112;6.776;2022-11-03T05:59:03;11.50;99.90
19868;DHT22;10096;51.112;6.776;2022-11-03T06:01:32;11.60;99.90
19868;DHT22;10096;51.112;6.776;2022-11-03T06:04:18;11.60;99.90
19868;DHT22;10096;51.112;6.776;2022-11-03T06:06:51;11.50;99.90
19868;DHT22;10096;51.112;6.776;2022-11-03T06:09:23;11.50;99.90
19868;DHT22;10096;51.112;6.776;2022-11-03T06:11:54;11.60;99.90
19868;DHT22;10096;51.112;6.776;2022-11-03T06:14:29;11.50;99.90
19868;DHT22;10096;51.112;6.776;2022-11-03T06:16:58;11.70;99.90
19868;DHT22;10096;51.112;6.776;2022-11-03T06:19:28;11.70;99.90
19868;DHT22;10096;51.112;6.776;2022-11-03T06:22:07;11.70;99.90
19868;DHT22;10096;51.112;6.776;2022-11-03T06:24:40;11.60;99.90
19868;DHT22;10096;51.112;6.776;2022-11-03T06:27:09;11.50;99.90
19868;DHT22;10096;51.112;6.776;2022-11-03T06:29:38;11.60;99.90
19868;DHT22;10096;51.112;6.776;2022-11-03T06:32:09;11.60;99.90
19868;DHT22;10096;51.112;6.776;2022-11-03T06:34:41;11.80;99.90
19868;DHT22;10096;51.112;6.776;2022-11-03T06:37:30;11.60;99.90
19868;DHT22;10096;51.112;6.776;2022-11-03T06:40:00;11.60;99.90
19868;DHT22;10096;51.112;6.776;2022-11-03T06:42:30;11.60;99.90
19868;DHT22;10096;51.112;6.776;2022-11-03T06:45:11;11.60;99.90
19868;DHT22;10096;51.112;6.776;2022-11-03T06:47:48;11.70;99.90
19868;DHT22;10096;51.112;6.776;2022-11-03T06:50:21;11.70;99.90
19868;DHT22;10096;51.112;6.776;2022-11-03T06:53:02;11.70;99.90
19868;DHT22;10096;51.112;6.776;2022-11-03T06:55:40;11.90;99.90
19868;DHT22;10096;51.112;6.776;2022-11-03T06:58:17;11.80;99.90
19868;DHT22;10096;51.112;6.776;2022-11-03T07:00:48;11.80;99.90
19868;DHT22;10096;51.112;6.776;2022-11-03T07:03:20;11.80;99.90
19868;DHT22;10096;51.112;6.776;2022-11-03T07:06:13;12.00;99.90
19868;DHT22;10096;51.112;6.776;2022-11-03T07:08:50;11.90;99.90
19868;DHT22;10096;51.112;6.776;2022-11-03T07:11:35;11.90;99.90
19868;DHT22;10096;51.112;6.776;2022-11-03T07:14:14;11.70;99.90
19868;DHT22;10096;51.112;6.776;2022-11-03T07:17:04;11.90;85.10
19868;DHT22;10096;51.112;6.776;2022-11-03T07:19:45;11.90;88.00
19868;DHT22;10096;51.112;6.776;2022-11-03T07:22:17;12.00;77.30
19868;DHT22;10096;51.112;6.776;2022-11-03T07:24:54;12.00;50.70
19868;DHT22;10096;51.112;6.776;2022-11-03T07:27:34;12.30;43.90
19868;DHT22;10096;51.112;6.776;2022-11-03T07:30:19;12.50;8.50
19868;DHT22;10096;51.112;6.776;2022-11-03T07:32:48;13.00;1.00
19868;DHT22;10096;51.112;6.776;2022-11-03T07:35:32;13.50;1.00
19868;DHT22;10096;51.112;6.776;2022-11-03T07:38:02;14.00;1.00
19868;DHT22;10096;51.112;6.776;2022-11-03T07:40:36;14.80;1.00
19868;DHT22;10096;51.112;6.776;2022-11-03T07:43:15;15.50;1.00
19868;DHT22;10096;51.112;6.776;2022-11-03T07:45:59;15.40;1.00
19868;DHT22;10096;51.112;6.776;2022-11-03T07:48:28;15.70;1.00
19868;DHT22;10096;51.112;6.776;2022-11-03T07:51:04;15.40;1.00
19868;DHT22;10096;51.112;6.776;2022-11-03T07:53:39;15.20;1.00
19868;DHT22;10096;51.112;6.776;2022-11-03T07:56:18;14.60;1.00
19868;DHT22;10096;51.112;6.776;2022-11-03T07:58:53;14.60;1.00
19868;DHT22;10096;51.112;6.776;2022-11-03T08:01:28;14.60;1.00
19868;DHT22;10096;51.112;6.776;2022-11-03T08:03:59;14.20;1.00
19868;DHT22;10096;51.112;6.776;2022-11-03T08:06:30;14.30;1.00
19868;DHT22;10096;51.112;6.776;2022-11-03T08:09:00;14.20;1.00
19868;DHT22;10096;51.112;6.776;2022-11-03T08:11:30;14.20;1.00
19868;DHT22;10096;51.112;6.776;2022-11-03T08:14:03;14.00;1.00
19868;DHT22;10096;51.112;6.776;2022-11-03T08:16:31;13.90;1.00
19868;DHT22;10096;51.112;6.776;2022-11-03T08:18:58;13.90;1.00
19868;DHT22;10096;51.112;6.776;2022-11-03T08:21:25;13.90;1.00
19868;DHT22;10096;51.112;6.776;2022-11-03T08:23:58;14.10;1.00
19868;DHT22;10096;51.112;6.776;2022-11-03T08:26:27;14.10;1.00
19868;DHT22;10096;51.112;6.776;2022-11-03T08:28:54;14.00;1.00
19868;DHT22;10096;51.112;6.776;2022-11-03T08:34:07;13.90;1.00
19868;DHT22;10096;51.112;6.776;2022-11-03T08:36:35;14.20;1.00
19868;DHT22;10096;51.112;6.776;2022-11-03T08:39:02;14.10;1.00
19868;DHT22;10096;51.112;6.776;2022-11-03T08:41:32;14.20;1.00
19868;DHT22;10096;51.112;6.776;2022-11-03T08:44:00;14.10;1.00
19868;DHT22;10096;51.112;6.776;2022-11-03T08:46:35;13.90;1.00
19868;DHT22;10096;51.112;6.776;2022-11-03T08:49:05;13.90;1.00
19868;DHT22;10096;51.112;6.776;2022-11-03T08:51:42;13.90;1.00
19868;DHT22;10096;51.112;6.776;2022-11-03T08:54:10;13.90;1.00
19868;DHT22;10096;51.112;6.776;2022-11-03T08:56:40;13.80;1.00
19868;DHT22;10096;51.112;6.776;2022-11-03T08:59:08;14.00;1.00
19868;DHT22;10096;51.112;6.776;2022-11-03T09:01:39;14.00;1.00
19868;DHT22;10096;51.112;6.776;2022-11-03T09:04:10;14.00;1.00
19868;DHT22;10096;51.112;6.776;2022-11-03T09:06:40;14.00;1.00
19868;DHT22;10096;51.112;6.776;2022-11-03T09:09:09;14.30;1.00
19868;DHT22;10096;51.112;6.776;2022-11-03T09:11:37;14.40;1.00
19868;DHT22;10096;51.112;6.776;2022-11-03T09:14:04;14.30;1.00
19868;DHT22;10096;51.112;6.776;2022-11-03T09:16:32;14.50;1.00
19868;DHT22;10096;51.112;6.776;2022-11-03T09:19:01;14.60;1.00
19868;DHT22;10096;51.112;6.776;2022-11-03T09:21:29;14.40;1.00
19868;DHT22;10096;51.112;6.776;2022-11-03T09:23:56;14.50;1.00
19868;DHT22;10096;51.112;6.776;2022-11-03T09:26:24;14.50;1.00
19868;DHT22;10096;51.112;6.776;2022-11-03T09:28:53;14.90;1.00
19868;DHT22;10096;51.112;6.776;2022-11-03T09:31:37;14.70;1.00
19868;DHT22;10096;51.112;6.776;2022-11-03T09:34:07;14.80;1.00
19868;DHT22;10096;51.112;6.776;2022-11-03T09:36:48;14.70;1.00
19868;DHT22;10096;51.112;6.776;2022-11-03T09:39:19;14.70;1.00
19868;DHT22;10096;51.112;6.776;2022-11-03T09:41:46;14.80;1.00
19868;DHT22;10096;51.112;6.776;2022-11-03T09:44:13;15.00;1.00
19868;DHT22;10096;51.112;6.776;2022-11-03T09:46:42;14.70;1.00
19868;DHT22;10096;51.112;6.776;2022-11-03T09:52:32;14.60;1.00
19868;DHT22;10096;51.112;6.776;2022-11-03T09:55:02;15.00;1.00
19868;DHT22;10096;51.112;6.776;2022-11-03T09:57:31;14.80;1.00
19868;DHT22;10096;51.112;6.776;2022-11-03T09:59:58;14.90;1.00
19868;DHT22;10096;51.112;6.776;2022-11-03T10:02:28;14.80;1.00
19868;DHT22;10096;51.112;6.776;2022-11-03T10:05:12;14.90;1.00
19868;DHT22;10096;51.112;6.776;2022-11-03T10:07:58;15.20;1.00
19868;DHT22;10096;51.112;6.776;2022-11-03T10:11:01;14.90;1.00
19868;DHT22;10096;51.112;6.776;2022-11-03T10:13:42;15.10;1.00
19868;DHT22;10096;51.112;6.776;2022-11-03T10:16:11;14.90;1.00
19868;DHT22;10096;51.112;6.776;2022-11-03T10:18:44;15.20;1.00
19868;DHT22;10096;51.112;6.776;2022-11-03T10:21:31;15.30;1.00
19868;DHT22;10096;51.112;6.776;2022-11-03T10:24:11;15.40;1.00
19868;DHT22;10096;51.112;6.776;2022-11-03T10:26:44;15.20;1.00
19868;DHT22;10096;51.112;6.776;2022-11-03T10:32:33;15.30;1.00
19868;DHT22;10096;51.112;6.776;2022-11-03T10:35:31;15.30;1.00
19868;DHT22;10096;51.112;6.776;2022-11-03T10:38:23;15.00;1.00
19868;DHT22;10096;51.112;6.776;2022-11-03T10:40:55;14.80;1.00
19868;DHT22;10096;51.112;6.776;2022-11-03T10:43:22;15.20;1.00
19868;DHT22;10096;51.112;6.776;2022-11-03T10:46:11;14.80;1.00
19868;DHT22;10096;51.112;6.776;2022-11-03T10:48:38;14.80;1.00
19868;DHT22;10096;51.112;6.776;2022-11-03T10:51:09;14.50;1.00
19868;DHT22;10096;51.112;6.776;2022-11-03T10:53:36;14.60;1.00
19868;DHT22;10096;51.112;6.776;2022-11-03T10:56:12;14.70;1.00
19868;DHT22;10096;51.112;6.776;2022-11-03T10:58:39;14.70;1.00
19868;DHT22;10096;51.112;6.776;2022-11-03T11:01:08;15.00;1.00
19868;DHT22;10096;51.112;6.776;2022-11-03T11:04:01;14.70;1.00
19868;DHT22;10096;51.112;6.776;2022-11-03T11:06:41;14.70;1.00
19868;DHT22;10096;51.112;6.776;2022-11-03T11:09:12;15.10;1.00
19868;DHT22;10096;51.112;6.776;2022-11-03T11:12:13;14.90;1.00
19868;DHT22;10096;51.112;6.776;2022-11-03T11:14:55;15.10;1.00
19868;DHT22;10096;51.112;6.776;2022-11-03T11:17:41;15.00;1.00
19868;DHT22;10096;51.112;6.776;2022-11-03T11:20:29;15.00;1.00
19868;DHT22;10096;51.112;6.776;2022-11-03T11:23:41;14.90;1.00
19868;DHT22;10096;51.112;6.776;2022-11-03T11:26:29;14.90;1.00
19868;DHT22;10096;51.112;6.776;2022-11-03T11:39:02;15.00;1.00
19868;DHT22;10096;51.112;6.776;2022-11-03T11:42:12;15.10;1.00
19868;DHT22;10096;51.112;6.776;2022-11-03T11:44:53;15.10;1.00
19868;DHT22;10096;51.112;6.776;2022-11-03T11:50:20;15.00;1.00
19868;DHT22;10096;51.112;6.776;2022-11-03T11:52:55;14.90;1.00
19868;DHT22;10096;51.112;6.776;2022-11-03T11:55:49;15.00;1.00
19868;DHT22;10096;51.112;6.776;2022-11-03T11:58:29;14.80;1.00
19868;DHT22;10096;51.112;6.776;2022-11-03T12:01:01;14.80;1.00
19868;DHT22;10096;51.112;6.776;2022-11-03T12:03:37;14.80;1.00
19868;DHT22;10096;51.112;6.776;2022-11-03T12:06:05;14.90;1.00
19868;DHT22;10096;51.112;6.776;2022-11-03T12:08:34;14.80;1.00
19868;DHT22;10096;51.112;6.776;2022-11-03T12:11:09;14.70;1.00
19868;DHT22;10096;51.112;6.776;2022-11-03T12:13:46;14.80;1.00
19868;DHT22;10096;51.112;6.776;2022-11-03T12:16:30;15.00;1.00
19868;DHT22;10096;51.112;6.776;2022-11-03T12:19:07;14.90;1.00
19868;DHT22;10096;51.112;6.776;2022-11-03T12:22:02;14.90;1.00
19868;DHT22;10096;51.112;6.776;2022-11-03T12:24:54;15.00;1.00
19868;DHT22;10096;51.112;6.776;2022-11-03T12:27:42;15.30;1.00
19868;DHT22;10096;51.112;6.776;2022-11-03T12:30:14;15.00;1.00
19868;DHT22;10096;51.112;6.776;2022-11-03T12:33:05;15.10;1.00
19868;DHT22;10096;51.112;6.776;2022-11-03T12:35:32;15.00;1.00
19868;DHT22;10096;51.112;6.776;2022-11-03T12:37:59;15.20;1.00
19868;DHT22;10096;51.112;6.776;2022-11-03T12:40:28;15.20;1.00
19868;DHT22;10096;51.112;6.776;2022-11-03T12:45:53;14.80;1.00
19868;DHT22;10096;51.112;6.776;2022-11-03T12:48:21;14.90;1.00
19868;DHT22;10096;51.112;6.776;2022-11-03T12:50:49;14.80;1.00
19868;DHT22;10096;51.112;6.776;2022-11-03T12:53:18;14.70;1.00
19868;DHT22;10096;51.112;6.776;2022-11-03T12:55:46;15.00;1.00
19868;DHT22;10096;51.112;6.776;2022-11-03T12:58:20;14.80;1.00
19868;DHT22;10096;51.112;6.776;2022-11-03T13:00:47;15.00;1.00
19868;DHT22;10096;51.112;6.776;2022-11-03T13:03:16;14.90;1.00
19868;DHT22;10096;51.112;6.776;2022-11-03T13:05:51;14.60;1.00
19868;DHT22;10096;51.112;6.776;2022-11-03T13:08:18;14.80;1.00
19868;DHT22;10096;51.112;6.776;2022-11-03T13:10:49;14.70;1.00
19868;DHT22;10096;51.112;6.776;2022-11-03T13:13:17;14.90;1.00
19868;DHT22;10096;51.112;6.776;2022-11-03T13:15:47;14.80;1.00
19868;DHT22;10096;51.112;6.776;2022-11-03T13:18:19;14.60;1.00
19868;DHT22;10096;51.112;6.776;2022-11-03T13:20:52;14.70;1.00
19868;DHT22;10096;51.112;6.776;2022-11-03T13:23:22;14.80;1.00
19868;DHT22;10096;51.112;6.776;2022-11-03T13:25:53;15.00;1.00
19868;DHT22;10096;51.112;6.776;2022-11-03T13:28:22;15.00;1.00
19868;DHT22;10096;51.112;6.776;2022-11-03T13:30:49;14.90;1.00
19868;DHT22;10096;51.112;6.776;2022-11-03T13:33:16;14.90;1.00
19868;DHT22;10096;51.112;6.776;2022-11-03T13:35:46;14.90;1.00
19868;DHT22;10096;51.112;6.776;2022-11-03T13:38:13;15.20;1.00
19868;DHT22;10096;51.112;6.776;2022-11-03T13:40:40;15.00;1.00
19868;DHT22;10096;51.112;6.776;2022-11-03T13:43:07;15.00;1.00
19868;DHT22;10096;51.112;6.776;2022-11-03T13:45:35;14.90;1.00
19868;DHT22;10096;51.112;6.776;2022-11-03T13:48:06;15.00;1.00
19868;DHT22;10096;51.112;6.776;2022-11-03T13:50:33;14.80;1.00
19868;DHT22;10096;51.112;6.776;2022-11-03T13:53:05;14.80;1.00
19868;DHT22;10096;51.112;6.776;2022-11-03T13:55:33;14.80;1.00
19868;DHT22;10096;51.112;6.776;2022-11-03T13:58:00;14.80;1.00
19868;DHT22;10096;51.112;6.776;2022-11-03T14:00:29;15.10;1.00
19868;DHT22;10096;51.112;6.776;2022-11-03T14:02:57;14.80;1.00
19868;DHT22;10096;51.112;6.776;2022-11-03T14:05:24;14.50;1.00
19868;DHT22;10096;51.112;6.776;2022-11-03T14:07:51;14.70;1.00
19868;DHT22;10096;51.112;6.776;2022-11-03T14:10:24;14.60;1.00
19868;DHT22;10096;51.112;6.776;2022-11-03T14:12:51;14.80;1.00
19868;DHT22;10096;51.112;6.776;2022-11-03T14:15:20;14.60;1.00
19868;DHT22;10096;51.112;6.776;2022-11-03T14:17:47;14.60;1.00
19868;DHT22;10096;51.112;6.776;2022-11-03T14:20:17;14.90;1.00
19868;DHT22;10096;51.112;6.776;2022-11-03T14:22:44;14.80;1.00
19868;DHT22;10096;51.112;6.776;2022-11-03T14:25:12;14.70;1.00
19868;DHT22;10096;51.112;6.776;2022-11-03T14:27:43;14.50;1.00
19868;DHT22;10096;51.112;6.776;2022-11-03T14:30:11;14.40;1.00
19868;DHT22;10096;51.112;6.776;2022-11-03T14:32:39;14.40;1.00
19868;DHT22;10096;51.112;6.776;2022-11-03T14:35:10;14.30;1.00
19868;DHT22;10096;51.112;6.776;2022-11-03T14:37:37;14.40;1.00
19868;DHT22;10096;51.112;6.776;2022-11-03T14:40:06;14.20;1.00
19868;DHT22;10096;51.112;6.776;2022-11-03T14:42:55;14.00;1.00
19868;DHT22;10096;51.112;6.776;2022-11-03T14:45:33;14.20;1.00
19868;DHT22;10096;51.112;6.776;2022-11-03T14:48:00;14.00;1.00
19868;DHT22;10096;51.112;6.776;2022-11-03T14:50:35;13.90;1.00
19868;DHT22;10096;51.112;6.776;2022-11-03T14:53:03;14.10;1.00
19868;DHT22;10096;51.112;6.776;2022-11-03T14:55:45;13.90;1.00
19868;DHT22;10096;51.112;6.776;2022-11-03T14:58:14;13.50;1.00
19868;DHT22;10096;51.112;6.776;2022-11-03T15:00:48;13.70;1.00
19868;DHT22;10096;51.112;6.776;2022-11-03T15:03:15;13.70;1.00
19868;DHT22;10096;51.112;6.776;2022-11-03T15:05:42;13.70;1.00
19868;DHT22;10096;51.112;6.776;2022-11-03T15:08:14;13.40;1.00
19868;DHT22;10096;51.112;6.776;2022-11-03T15:10:48;13.30;11.00
19868;DHT22;10096;51.112;6.776;2022-11-03T15:13:26;13.50;99.90
19868;DHT22;10096;51.112;6.776;2022-11-03T15:15:55;13.40;99.90
19868;DHT22;10096;51.112;6.776;2022-11-03T15:18:22;13.50;94.30
19868;DHT22;10096;51.112;6.776;2022-11-03T15:20:49;13.40;99.90
19868;DHT22;10096;51.112;6.776;2022-11-03T15:23:16;13.00;99.90
19868;DHT22;10096;51.112;6.776;2022-11-03T15:25:51;12.90;99.90
19868;DHT22;10096;51.112;6.776;2022-11-03T15:28:18;12.90;99.90
19868;DHT22;10096;51.112;6.776;2022-11-03T15:30:48;12.90;99.90
19868;DHT22;10096;51.112;6.776;2022-11-03T15:33:16;12.90;99.90
19868;DHT22;10096;51.112;6.776;2022-11-03T15:35:43;12.90;99.90
19868;DHT22;10096;51.112;6.776;2022-11-03T15:38:10;13.00;99.90
19868;DHT22;10096;51.112;6.776;2022-11-03T15:40:41;12.90;99.90
19868;DHT22;10096;51.112;6.776;2022-11-03T15:43:17;13.00;99.90
19868;DHT22;10096;51.112;6.776;2022-11-03T15:45:49;12.90;99.90
19868;DHT22;10096;51.112;6.776;2022-11-03T15:48:18;13.10;99.90
19868;DHT22;10096;51.112;6.776;2022-11-03T15:50:48;13.00;99.90
19868;DHT22;10096;51.112;6.776;2022-11-03T15:53:15;12.90;99.90
19868;DHT22;10096;51.112;6.776;2022-11-03T15:55:42;13.10;99.90
19868;DHT22;10096;51.112;6.776;2022-11-03T15:58:15;12.90;99.90
19868;DHT22;10096;51.112;6.776;2022-11-03T16:00:47;12.90;99.90
19868;DHT22;10096;51.112;6.776;2022-11-03T16:03:29;12.90;99.90
19868;DHT22;10096;51.112;6.776;2022-11-03T16:06:01;12.90;99.90
19868;DHT22;10096;51.112;6.776;2022-11-03T16:08:31;13.10;99.90
19868;DHT22;10096;51.112;6.776;2022-11-03T16:11:02;12.80;1.00
19868;DHT22;10096;51.112;6.776;2022-11-03T16:13:29;12.60;1.00
19868;DHT22;10096;51.112;6.776;2022-11-03T16:15:57;12.60;1.00
19868;DHT22;10096;51.112;6.776;2022-11-03T16:18:29;12.60;1.00
19868;DHT22;10096;51.112;6.776;2022-11-03T16:20:56;12.70;1.00
19868;DHT22;10096;51.112;6.776;2022-11-03T16:23:32;12.60;1.00
19868;DHT22;10096;51.112;6.776;2022-11-03T16:26:09;12.40;13.00
19868;DHT22;10096;51.112;6.776;2022-11-03T16:28:43;12.50;99.90
19868;DHT22;10096;51.112;6.776;2022-11-03T16:31:24;12.40;99.90
19868;DHT22;10096;51.112;6.776;2022-11-03T16:33:53;12.30;99.90
19868;DHT22;10096;51.112;6.776;2022-11-03T16:36:23;12.30;99.90
19868;DHT22;10096;51.112;6.776;2022-11-03T16:38:50;12.30;99.90
19868;DHT22;10096;51.112;6.776;2022-11-03T16:41:19;12.40;99.90
19868;DHT22;10096;51.112;6.776;2022-11-03T16:43:52;12.30;99.90
19868;DHT22;10096;51.112;6.776;2022-11-03T16:46:24;12.30;99.90
19868;DHT22;10096;51.112;6.776;2022-11-03T16:48:53;12.40;99.90